Terminal Aerodrome Forecast
Issued by NWS Miami, FL

Home | Current Version | Previous Version | Text Only | Print | Product List | Glossary On
Versions: 1 2 3 4 5 6 7 8 9 10 11 12 13 14 15 16 17 18 19 20 21 22 23 24 25 26
000
FTUS42 KMFL 250547
TAFPBI
TAF
KPBI 250547Z 2506/2606 13006KT P6SM FEW020 SCT250
     FM251400 12012KT P6SM FEW025 SCT060 BKN250
     FM260100 12006KT P6SM SCT025 SCT250=

USA.gov is the U.S. government's official web portal to all federal, state and local government web resources and services.